Time;durP1;ratioP1;P1;durP2;ratioP2;P2;SDS_P1;SDS_P2;PMS_P1;PMS_P2;Temp;Humidity;BMP_temperature;BMP_pressure;BME280_temperature;BME280_humidity;BME280_pressure;Samples;Min_cycle;Max_cycle;Signal;HPM_P1;HPM_P2
2023/04/05 00:02:17;;;;;;;27.60;13.50;;;;;;;-0.90;62.07;100672.85;103095;1256;138307;-73
2023/04/05 00:04:53;;;;;;;22.10;12.40;;;;;;;-0.91;62.21;100669.75;102690;1260;1003066;-73
2023/04/05 00:07:41;;;;;;;18.80;11.40;;;;;;;-0.93;62.19;100669.38;103110;1255;1002934;-73
2023/04/05 00:10:29;;;;;;;23.60;11.30;;;;;;;-0.94;62.51;100669.34;103678;1256;95141;-74
2023/04/05 00:13:10;;;;;;;23.30;13.20;;;;;;;-0.95;62.18;100671.55;103739;1257;138213;-73
2023/04/05 00:15:59;;;;;;;23.60;13.20;;;;;;;-0.96;62.40;100671.02;104424;1256;94382;-73
2023/04/05 00:18:33;;;;;;;22.30;13.30;;;;;;;-0.98;62.51;100668.25;104206;1257;109490;-72
2023/04/05 00:21:10;;;;;;;20.40;11.40;;;;;;;-0.98;62.65;100663.97;104501;1255;107299;-73
2023/04/05 00:23:40;;;;;;;23.10;12.70;;;;;;;-0.99;62.73;100661.92;103500;1255;1002511;-74
2023/04/05 00:26:21;;;;;;;22.10;12.10;;;;;;;-1.00;63.09;100657.96;103919;1254;138491;-73
2023/04/05 00:29:01;;;;;;;20.20;11.60;;;;;;;-1.01;62.68;100656.07;103125;1256;95210;-73
2023/04/05 00:31:38;;;;;;;18.50;11.60;;;;;;;-1.01;63.04;100653.67;104069;1256;138175;-72
2023/04/05 00:34:07;;;;;;;17.80;11.60;;;;;;;-1.02;62.95;100652.65;103128;1257;108127;-73
2023/04/05 00:36:48;;;;;;;25.50;12.40;;;;;;;-1.04;62.86;100649.02;104451;1255;94657;-73
2023/04/05 00:39:23;;;;;;;20.50;11.80;;;;;;;-1.05;63.37;100644.39;103663;1254;108853;-73
2023/04/05 00:41:50;;;;;;;19.60;10.60;;;;;;;-1.06;62.94;100643.70;103386;1253;96431;-73
2023/04/05 00:44:21;;;;;;;20.00;11.90;;;;;;;-1.06;63.18;100640.45;102487;1257;1002948;-73
2023/04/05 00:46:59;;;;;;;17.90;10.80;;;;;;;-1.07;63.41;100641.45;103172;1257;108713;-73
2023/04/05 00:49:27;;;;;;;21.70;11.10;;;;;;;-1.10;63.52;100634.70;103102;1256;138674;-73
2023/04/05 00:51:54;;;;;;;24.40;11.00;;;;;;;-1.12;63.47;100635.34;103193;1257;109879;-73
2023/04/05 00:54:28;;;;;;;22.40;13.20;;;;;;;-1.15;63.74;100631.36;103042;1260;96606;-73
2023/04/05 00:56:58;;;;;;;27.50;13.20;;;;;;;-1.16;63.73;100634.08;103127;1258;138346;-73
2023/04/05 00:59:46;;;;;;;24.30;12.50;;;;;;;-1.18;63.72;100629.09;103165;1256;107798;-72
2023/04/05 01:02:30;;;;;;;23.80;12.60;;;;;;;-1.18;63.76;100628.73;103058;1256;138604;-73
2023/04/05 01:05:30;;;;;;;23.90;12.90;;;;;;;-1.19;63.84;100627.70;103405;1256;108969;-73
2023/04/05 01:08:16;;;;;;;21.60;12.20;;;;;;;-1.21;63.93;100622.20;103160;1260;138564;-73
2023/04/05 01:10:51;;;;;;;22.30;12.20;;;;;;;-1.23;64.33;100623.89;103268;1254;110478;-73
2023/04/05 01:13:30;;;;;;;23.50;12.10;;;;;;;-1.24;64.19;100618.39;103097;1256;138762;-72
2023/04/05 01:16:00;;;;;;;19.70;13.00;;;;;;;-1.26;64.44;100615.29;103422;1256;95226;-73
2023/04/05 01:18:31;;;;;;;23.60;13.50;;;;;;;-1.28;64.39;100616.23;103197;1256;106956;-73
2023/04/05 01:21:32;;;;;;;22.00;13.60;;;;;;;-1.32;64.28;100612.58;103167;1256;138584;-73
2023/04/05 01:24:16;;;;;;;23.50;13.10;;;;;;;-1.34;64.81;100615.09;103455;1256;109074;-72
2023/04/05 01:26:56;;;;;;;19.60;11.30;;;;;;;-1.37;64.86;100613.51;103162;1256;138465;-75
2023/04/05 01:29:50;;;;;;;20.50;12.40;;;;;;;-1.38;65.04;100617.05;103296;1255;96958;-74
2023/04/05 01:32:31;;;;;;;20.60;12.10;;;;;;;-1.41;65.13;100613.92;103370;1256;138691;-73
2023/04/05 01:35:12;;;;;;;21.40;12.80;;;;;;;-1.43;64.93;100610.81;104073;1255;96327;-74
2023/04/05 01:37:41;;;;;;;20.80;12.00;;;;;;;-1.45;65.13;100614.50;103498;1256;138522;-74
2023/04/05 01:40:11;;;;;;;18.10;11.70;;;;;;;-1.47;65.37;100614.45;103185;1255;107287;-73
2023/04/05 01:42:38;;;;;;;20.80;12.00;;;;;;;-1.50;65.24;100611.32;104200;1255;96765;-74
2023/04/05 01:45:09;;;;;;;24.70;13.00;;;;;;;-1.52;65.36;100614.19;103425;1256;138264;-73
2023/04/05 01:47:37;;;;;;;22.70;13.30;;;;;;;-1.54;65.68;100616.88;103303;1255;96437;-73
2023/04/05 01:50:05;;;;;;;25.90;13.30;;;;;;;-1.55;65.75;100621.11;103487;1256;138490;-74
2023/04/05 01:52:34;;;;;;;23.50;13.70;;;;;;;-1.56;65.88;100625.35;103516;1256;107065;-73
2023/04/05 01:55:12;;;;;;;23.30;13.00;;;;;;;-1.58;65.97;100624.12;103354;1256;139877;-74
2023/04/05 01:57:42;;;;;;;26.40;14.30;;;;;;;-1.59;65.94;100624.44;103132;1256;108063;-73
2023/04/05 02:00:12;;;;;;;26.30;15.10;;;;;;;-1.62;66.15;100619.77;103946;1256;96428;-74
2023/04/05 02:02:39;;;;;;;28.70;15.00;;;;;;;-1.63;66.30;100619.20;103567;1260;138345;-74
2023/04/05 02:05:09;;;;;;;29.00;15.40;;;;;;;-1.65;66.31;100619.84;103120;1256;107145;-72
2023/04/05 02:07:36;;;;;;;30.70;15.60;;;;;;;-1.66;66.11;100621.88;103525;1254;138535;-72
2023/04/05 02:10:04;;;;;;;27.80;15.10;;;;;;;-1.66;66.70;100620.33;103289;1259;108882;-73
2023/04/05 02:12:53;;;;;;;29.60;15.00;;;;;;;-1.66;66.59;100620.67;104030;1255;139384;-72
2023/04/05 02:15:20;;;;;;;25.90;15.40;;;;;;;-1.63;66.57;100620.90;103422;1256;109434;-73
2023/04/05 02:17:47;;;;;;;28.50;15.70;;;;;;;-1.61;66.85;100625.23;103271;1260;108525;-73
2023/04/05 02:20:17;;;;;;;28.20;15.70;;;;;;;-1.61;66.73;100626.77;103240;1254;138491;-73
2023/04/05 02:22:44;;;;;;;26.30;14.30;;;;;;;-1.62;66.59;100626.73;103697;1256;107527;-72
2023/04/05 02:25:12;;;;;;;29.00;15.10;;;;;;;-1.62;66.66;100629.98;104154;1256;138784;-73
2023/04/05 02:27:43;;;;;;;32.90;14.90;;;;;;;-1.61;66.88;100629.34;103878;1254;109955;-73
2023/04/05 02:30:20;;;;;;;27.60;15.20;;;;;;;-1.60;67.23;100629.20;103299;1258;107649;-72
2023/04/05 02:32:48;;;;;;;29.00;15.20;;;;;;;-1.59;67.13;100628.70;103631;1254;138589;-72
2023/04/05 02:35:17;;;;;;;27.90;15.10;;;;;;;-1.58;66.83;100627.70;103793;1254;1003055;-72
2023/04/05 02:37:44;;;;;;;28.40;14.90;;;;;;;-1.56;66.63;100623.13;104486;1255;139585;-73
2023/04/05 02:40:16;;;;;;;27.30;15.30;;;;;;;-1.56;67.37;100623.65;104555;1255;110940;-74
2023/04/05 02:42:43;;;;;;;28.50;15.10;;;;;;;-1.56;67.23;100620.91;104519;1255;107542;-74
2023/04/05 02:45:11;;;;;;;28.30;15.00;;;;;;;-1.57;66.91;100620.56;104434;1255;138550;-72
2023/04/05 02:47:38;;;;;;;26.60;14.70;;;;;;;-1.57;67.01;100618.34;104402;1256;108029;-73
2023/04/05 02:50:07;;;;;;;27.80;15.20;;;;;;;-1.57;67.32;100618.34;103473;1256;138660;-73
2023/04/05 02:52:39;;;;;;;29.40;14.80;;;;;;;-1.58;67.52;100621.39;103299;1256;110768;-72
2023/04/05 02:55:08;;;;;;;27.10;15.20;;;;;;;-1.57;67.46;100621.23;103431;1256;138661;-73
2023/04/05 02:57:35;;;;;;;27.10;15.40;;;;;;;-1.56;67.58;100621.59;102426;1256;1016332;-73
2023/04/05 03:00:14;;;;;;;28.60;15.50;;;;;;;-1.56;67.68;100618.53;103463;1256;107361;-74
2023/04/05 03:02:41;;;;;;;31.70;15.50;;;;;;;-1.57;67.77;100619.04;103550;1254;138547;-73
2023/04/05 03:05:10;;;;;;;26.00;15.20;;;;;;;-1.56;67.73;100620.75;103697;1254;109805;-73
2023/04/05 03:07:37;;;;;;;31.20;15.80;;;;;;;-1.55;67.65;100615.15;103226;1253;138546;-73
2023/04/05 03:10:08;;;;;;;27.40;15.00;;;;;;;-1.54;67.90;100615.51;103288;1254;96589;-73
2023/04/05 03:12:41;;;;;;;29.50;15.70;;;;;;;-1.52;67.69;100616.91;103315;1259;107797;-73
2023/04/05 03:15:19;;;;;;;27.50;14.80;;;;;;;-1.50;67.66;100618.33;103536;1254;96464;-73
2023/04/05 03:17:46;;;;;;;28.50;15.50;;;;;;;-1.47;67.97;100618.89;104051;1253;109402;-73
2023/04/05 03:20:16;;;;;;;28.30;13.90;;;;;;;-1.44;68.27;100616.39;103474;1256;138710;-73
2023/04/05 03:22:43;;;;;;;25.80;13.90;;;;;;;-1.42;68.29;100617.15;103292;1254;96492;-73
2023/04/05 03:25:11;;;;;;;25.10;13.60;;;;;;;-1.38;68.37;100616.20;103505;1254;138491;-73
2023/04/05 03:27:43;;;;;;;24.50;13.80;;;;;;;-1.36;68.45;100617.63;103732;1259;96384;-73
2023/04/05 03:30:15;;;;;;;30.10;14.40;;;;;;;-1.32;68.46;100621.11;103395;1254;110463;-73
2023/04/05 03:32:47;;;;;;;26.50;14.60;;;;;;;-1.28;68.42;100618.46;103997;1254;139165;-73
2023/04/05 03:35:48;;;;;;;24.40;13.60;;;;;;;-1.23;68.38;100616.71;103988;1253;96971;-72
2023/04/05 03:38:16;;;;;;;27.30;14.10;;;;;;;-1.17;68.44;100618.01;103589;1254;138349;-72
2023/04/05 03:40:51;;;;;;;29.00;14.20;;;;;;;-1.11;68.48;100616.42;103415;1254;96438;-74
2023/04/05 03:43:21;;;;;;;25.00;13.60;;;;;;;-1.09;68.31;100615.96;104036;1254;138814;-73
2023/04/05 03:45:48;;;;;;;26.30;13.30;;;;;;;-1.05;68.18;100622.71;103393;1254;107775;-73
2023/04/05 03:48:21;;;;;;;26.60;13.80;;;;;;;-1.01;68.44;100620.91;103314;1254;96926;-72
2023/04/05 03:50:52;;;;;;;27.80;13.40;;;;;;;-0.97;68.26;100620.81;103232;1255;138317;-73
2023/04/05 03:53:19;;;;;;;25.40;13.10;;;;;;;-0.94;68.34;100615.25;104584;1253;94578;-73
2023/04/05 03:55:52;;;;;;;23.40;12.70;;;;;;;-0.88;68.22;100617.25;103994;1254;138616;-73
2023/04/05 03:58:28;;;;;;;26.50;12.70;;;;;;;-0.83;68.14;100614.11;103434;1253;108754;-73
2023/04/05 04:01:05;;;;;;;24.10;13.70;;;;;;;-0.78;68.12;100610.63;103364;1254;139428;-72
2023/04/05 04:03:36;;;;;;;24.90;13.40;;;;;;;-0.75;68.13;100609.98;103659;1253;108605;-72
2023/04/05 04:06:07;;;;;;;26.20;14.30;;;;;;;-0.74;67.82;100612.92;103314;1254;96452;-73
2023/04/05 04:08:35;;;;;;;22.10;13.10;;;;;;;-0.71;67.91;100616.07;103623;1254;138382;-74
2023/04/05 04:11:03;;;;;;;21.00;12.10;;;;;;;-0.67;67.93;100616.48;104208;1253;108625;-74
2023/04/05 04:13:44;;;;;;;21.60;11.50;;;;;;;-0.63;67.80;100616.90;104113;1255;138315;-74
2023/04/05 04:16:32;;;;;;;22.40;10.60;;;;;;;-0.57;67.85;100620.74;104056;1254;107926;-67
2023/04/05 04:19:34;;;;;;;18.80;9.70;;;;;;;-0.51;67.68;100626.34;103022;1260;138792;-74
2023/04/05 04:22:12;;;;;;;22.70;11.40;;;;;;;-0.43;67.68;100628.88;103222;1254;109867;-71
2023/04/05 04:25:03;;;;;;;25.20;13.80;;;;;;;-0.39;67.59;100626.03;103188;1253;138501;-71
2023/04/05 04:28:02;;;;;;;24.50;13.30;;;;;;;-0.36;67.51;100629.67;103605;1254;96403;-72
2023/04/05 04:30:52;;;;;;;30.70;15.30;;;;;;;-0.31;67.52;100633.88;103716;1253;108104;-73
2023/04/05 04:33:54;;;;;;;26.00;14.30;;;;;;;-0.27;67.48;100636.51;103367;1254;96418;-73
2023/04/05 04:36:59;;;;;;;30.60;16.00;;;;;;;-0.23;67.43;100633.66;103786;1253;110585;-73
2023/04/05 04:39:47;;;;;;;32.50;16.80;;;;;;;-0.20;67.20;100632.69;103491;1254;108745;-74
2023/04/05 04:42:43;;;;;;;33.20;16.90;;;;;;;-0.18;67.47;100630.33;102871;1254;1003608;-73
2023/04/05 04:45:33;;;;;;;33.70;17.10;;;;;;;-0.19;67.46;100630.48;103907;1257;107262;-71
2023/04/05 04:48:32;;;;;;;29.80;16.30;;;;;;;-0.16;67.65;100631.23;103830;1254;96485;-68
2023/04/05 04:51:12;;;;;;;36.50;19.90;;;;;;;-0.13;67.53;100626.85;104593;1254;138630;-73
2023/04/05 04:53:39;;;;;;;41.60;20.30;;;;;;;-0.09;67.58;100627.09;104684;1253;107056;-74
2023/04/05 04:56:10;;;;;;;40.40;22.00;;;;;;;-0.07;67.51;100625.42;104606;1253;139134;-73
2023/04/05 04:58:37;;;;;;;39.30;20.30;;;;;;;-0.03;67.40;100625.13;104726;1253;107881;-71
2023/04/05 05:01:10;;;;;;;40.90;22.10;;;;;;;0.02;67.42;100624.88;104624;1257;94601;-72
2023/04/05 05:03:38;;;;;;;38.50;21.00;;;;;;;0.07;67.45;100630.43;103890;1254;111419;-71
2023/04/05 05:06:06;;;;;;;41.90;21.60;;;;;;;0.12;67.42;100631.86;103397;1255;108526;-71
2023/04/05 05:08:34;;;;;;;49.20;23.10;;;;;;;0.15;67.16;100628.49;104201;1252;138236;-71
2023/04/05 05:11:01;;;;;;;42.30;22.00;;;;;;;0.14;66.90;100630.36;103313;1258;106598;-71
2023/04/05 05:13:29;;;;;;;42.50;22.90;;;;;;;0.14;66.91;100633.10;103229;1257;138348;-69
2023/04/05 05:15:56;;;;;;;43.80;22.60;;;;;;;0.13;66.80;100634.63;103809;1255;110880;-72
2023/04/05 05:18:26;;;;;;;45.50;23.60;;;;;;;0.12;66.74;100636.14;103407;1254;107652;-72
2023/04/05 05:20:53;;;;;;;48.20;25.30;;;;;;;0.15;66.78;100635.84;103875;1254;138316;-72
2023/04/05 05:23:20;;;;;;;52.60;25.80;;;;;;;0.18;66.76;100636.44;104312;1255;107699;-72
2023/04/05 05:26:00;;;;;;;48.00;25.10;;;;;;;0.22;66.70;100637.35;103177;1254;138273;-72
2023/04/05 05:28:31;;;;;;;53.00;26.00;;;;;;;0.22;66.47;100640.61;103931;1255;109406;-72
2023/04/05 05:30:59;;;;;;;46.60;25.60;;;;;;;0.20;66.48;100639.20;103312;1258;107780;-72
2023/04/05 05:33:29;;;;;;;50.80;27.00;;;;;;;0.22;66.81;100639.75;103045;1254;138052;-73
2023/04/05 05:35:56;;;;;;;52.10;26.30;;;;;;;0.26;66.80;100643.23;103591;1255;108295;-74
2023/04/05 05:38:45;;;;;;;54.20;26.70;;;;;;;0.31;66.59;100647.91;103248;1254;138886;-78
2023/04/05 05:41:17;;;;;;;59.20;28.90;;;;;;;0.35;66.55;100648.31;103348;1254;110315;-78
2023/04/05 05:43:44;;;;;;;53.50;27.90;;;;;;;0.39;66.46;100652.85;103709;1254;138920;-78
2023/04/05 05:46:15;;;;;;;55.50;28.70;;;;;;;0.43;66.55;100655.13;103361;1254;96332;-79
2023/04/05 05:48:45;;;;;;;57.20;29.30;;;;;;;0.46;66.49;100653.96;103307;1254;109492;-78
2023/04/05 05:51:15;;;;;;;54.70;26.70;;;;;;;0.47;66.42;100657.92;103149;1254;138177;-81
2023/04/05 05:54:03;;;;;;;52.50;26.70;;;;;;;0.46;66.21;100656.02;103216;1258;111096;-78
2023/04/05 05:56:33;;;;;;;50.80;26.10;;;;;;;0.46;66.18;100658.23;103183;1258;138333;-78
2023/04/05 05:59:03;;;;;;;44.50;25.70;;;;;;;0.43;66.00;100661.11;103244;1254;97082;-78
2023/04/05 06:01:51;;;;;;;48.90;25.90;;;;;;;0.43;66.25;100661.10;103040;1256;138231;-75
2023/04/05 06:04:20;;;;;;;52.30;27.50;;;;;;;0.43;66.15;100661.29;103245;1254;96326;-74
2023/04/05 06:06:58;;;;;;;43.40;26.40;;;;;;;0.44;66.00;100663.35;103622;1254;110677;-75
2023/04/05 06:09:26;;;;;;;50.10;26.00;;;;;;;0.47;65.99;100668.86;103374;1254;138067;-76
2023/04/05 06:11:57;;;;;;;49.40;26.30;;;;;;;0.49;65.79;100668.03;103328;1254;96479;-74
2023/04/05 06:14:29;;;;;;;47.90;26.10;;;;;;;0.51;65.91;100666.86;103236;1254;138360;-74
2023/04/05 06:17:05;;;;;;;47.40;24.80;;;;;;;0.50;65.81;100667.02;103223;1258;96421;-73
2023/04/05 06:19:35;;;;;;;45.00;23.80;;;;;;;0.47;65.73;100668.86;103257;1257;138223;-73
2023/04/05 06:22:03;;;;;;;43.50;24.60;;;;;;;0.48;65.62;100670.06;103385;1253;108478;-74
2023/04/05 06:24:34;;;;;;;44.50;23.30;;;;;;;0.45;65.51;100670.54;103612;1252;96821;-84
2023/04/05 06:27:02;;;;;;;42.00;23.80;;;;;;;0.41;65.30;100674.77;103697;1257;139005;-86
2023/04/05 06:29:34;;;;;;;46.40;24.30;;;;;;;0.39;65.49;100672.86;103440;1254;96529;-83
2023/04/05 06:32:05;;;;;;;47.00;25.20;;;;;;;0.39;65.59;100673.54;103498;1254;138266;-87
2023/04/05 06:34:40;;;;;;;49.30;26.40;;;;;;;0.41;65.57;100678.02;103586;1254;109173;-86
2023/04/05 06:37:10;;;;;;;49.60;26.30;;;;;;;0.44;65.67;100676.00;103486;1255;96430;-86
2023/04/05 06:39:40;;;;;;;51.30;28.00;;;;;;;0.45;65.59;100678.42;103463;1254;108374;-88
2023/04/05 06:42:08;;;;;;;48.40;26.00;;;;;;;0.46;65.57;100679.11;103549;1255;96447;-74
2023/04/05 06:44:38;;;;;;;50.60;27.80;;;;;;;0.44;65.54;100681.31;103147;1255;137903;-75
2023/04/05 06:47:26;;;;;;;48.40;25.20;;;;;;;0.47;65.71;100685.11;103268;1256;109252;-70
2023/04/05 06:49:55;;;;;;;51.10;27.40;;;;;;;0.47;65.48;100686.48;103231;1255;138088;-75
2023/04/05 06:52:35;;;;;;;47.30;25.00;;;;;;;0.48;65.33;100684.62;103267;1254;107698;-77
2023/04/05 06:55:22;;;;;;;46.00;23.00;;;;;;;0.49;65.22;100685.48;103199;1253;138323;-78
2023/04/05 06:57:50;;;;;;;37.90;21.80;;;;;;;0.51;65.17;100685.17;103226;1256;109908;-76
2023/04/05 07:00:21;;;;;;;42.20;21.80;;;;;;;0.52;65.05;100683.30;103127;1254;106553;-77
2023/04/05 07:03:08;;;;;;;36.90;21.60;;;;;;;0.52;64.92;100682.63;103183;1254;138328;-73
2023/04/05 07:05:57;;;;;;;40.30;20.60;;;;;;;0.55;64.96;100685.09;103285;1254;107627;-74
2023/04/05 07:08:36;;;;;;;43.00;21.70;;;;;;;0.61;64.89;100688.42;103547;1254;138110;-74
2023/04/05 07:11:12;;;;;;;;;;;;;;;0.67;64.87;100688.67;103413;1256;109655;-74
2023/04/05 07:14:00;;;;;;;33.00;18.80;;;;;;;0.74;64.80;100690.84;103614;1254;124306;-78
2023/04/05 07:16:28;;;;;;;39.30;20.10;;;;;;;0.79;64.77;100691.09;103526;1254;96530;-78
2023/04/05 07:19:16;;;;;;;41.90;19.70;;;;;;;0.85;64.66;100690.99;103141;1254;138384;-80
2023/04/05 07:21:55;;;;;;;31.90;17.10;;;;;;;0.91;64.35;100688.88;103315;1258;96544;-76
2023/04/05 07:24:45;;;;;;;34.70;18.20;;;;;;;0.95;64.32;100688.92;103269;1254;109639;-79
2023/04/05 07:27:16;;;;;;;37.60;18.20;;;;;;;1.01;64.26;100690.88;103128;1256;138252;-76
2023/04/05 07:29:56;;;;;;;33.80;17.30;;;;;;;1.09;64.20;100689.11;103237;1254;96969;-75
2023/04/05 07:32:43;;;;;;;27.30;15.90;;;;;;;1.14;64.11;100690.20;103124;1254;138083;-74
2023/04/05 07:35:11;;;;;;;29.70;16.80;;;;;;;1.18;64.07;100691.11;103519;1258;96429;-74
2023/04/05 07:37:39;;;;;;;29.90;16.00;;;;;;;1.24;64.02;100689.97;103449;1254;138118;-76
2023/04/05 07:40:15;;;;;;;32.60;18.50;;;;;;;1.29;63.69;100693.30;103230;1254;107635;-76
2023/04/05 07:42:53;;;;;;;37.60;18.90;;;;;;;1.33;63.67;100693.70;103724;1254;96446;-75
2023/04/05 07:45:20;;;;;;;34.00;17.30;;;;;;;1.39;63.66;100696.48;103199;1255;138034;-75
2023/04/05 07:47:48;;;;;;;28.60;16.90;;;;;;;1.45;63.46;100698.81;103258;1256;96433;-75
2023/04/05 07:50:15;;;;;;;31.60;16.90;;;;;;;1.51;63.51;100696.48;103716;1254;137966;-76
2023/04/05 07:52:43;;;;;;;30.90;16.40;;;;;;;1.55;63.38;100696.86;104033;1260;107129;-73
2023/04/05 07:55:14;;;;;;;28.90;14.70;;;;;;;1.59;63.39;100695.88;103458;1255;96986;-74
2023/04/05 07:57:41;;;;;;;27.30;13.80;;;;;;;1.64;63.17;100696.13;103381;1253;107607;-74
2023/04/05 08:00:12;;;;;;;22.90;13.50;;;;;;;1.70;62.93;100697.21;103443;1253;96427;-73
2023/04/05 08:02:39;;;;;;;20.80;11.70;;;;;;;1.73;62.77;100697.07;104328;1253;137938;-73
2023/04/05 08:05:29;;;;;;;23.70;14.10;;;;;;;1.81;62.78;100695.97;102994;1253;1002675;-73
2023/04/05 08:07:57;;;;;;;20.10;10.70;;;;;;;1.89;62.62;100698.79;103962;1254;138505;-72
2023/04/05 08:10:28;;;;;;;19.80;12.00;;;;;;;1.95;62.21;100694.04;103269;1258;108044;-72
2023/04/05 08:12:55;;;;;;;22.90;11.60;;;;;;;2.00;62.06;100696.86;104673;1254;94712;-71
2023/04/05 08:15:32;;;;;;;22.80;12.20;;;;;;;2.05;61.83;100698.09;103711;1253;138369;-72
2023/04/05 08:18:03;;;;;;;21.40;11.40;;;;;;;2.07;61.76;100697.42;104620;1254;106811;-72
2023/04/05 08:20:30;;;;;;;20.50;11.60;;;;;;;2.13;61.58;100698.33;103606;1254;139222;-72
2023/04/05 08:22:58;;;;;;;26.10;10.80;;;;;;;2.16;61.48;100697.51;103998;1257;107216;-72
2023/04/05 08:25:25;;;;;;;20.60;11.60;;;;;;;2.18;61.31;100699.77;103142;1258;138447;-71
2023/04/05 08:27:52;;;;;;;22.10;10.80;;;;;;;2.27;61.23;100694.17;103371;1256;111358;-72
2023/04/05 08:30:23;;;;;;;19.50;11.10;;;;;;;2.33;61.14;100697.48;103857;1256;108095;-74
2023/04/05 08:32:50;;;;;;;18.30;9.40;;;;;;;2.36;61.01;100697.02;99832;1257;5332082;-74
2023/04/05 08:35:18;;;;;;;16.80;10.30;;;;;;;2.38;60.96;100696.68;103781;1254;107839;-73
2023/04/05 08:37:46;;;;;;;21.20;11.30;;;;;;;2.41;60.86;100696.36;103223;1253;138302;-72
2023/04/05 08:40:40;;;;;;;22.00;11.00;;;;;;;2.49;60.86;100700.00;103343;1255;110097;-73
2023/04/05 08:43:23;;;;;;;19.00;10.30;;;;;;;2.54;60.61;100697.15;104162;1253;138344;-73
2023/04/05 08:46:08;;;;;;;17.30;10.80;;;;;;;2.60;60.23;100699.58;103375;1257;96395;-73
2023/04/05 08:48:36;;;;;;;18.90;11.00;;;;;;;2.66;60.25;100698.08;103339;1257;108120;-73
2023/04/05 08:51:08;;;;;;;20.30;11.40;;;;;;;2.70;60.03;100701.05;103434;1255;137683;-74
2023/04/05 08:53:45;;;;;;;20.20;10.50;;;;;;;2.71;59.88;100692.80;103632;1254;110759;-74
2023/04/05 08:56:20;;;;;;;26.40;12.20;;;;;;;2.76;59.65;100689.23;103526;1253;137490;-77
2023/04/05 08:59:01;;;;;;;23.90;12.30;;;;;;;2.80;59.73;100695.43;103767;1256;95038;-75
2023/04/05 09:01:31;;;;;;;24.10;12.70;;;;;;;2.84;59.57;100698.03;104029;1253;137352;-73
2023/04/05 09:04:00;;;;;;;25.90;13.20;;;;;;;2.86;59.50;100693.41;103533;1256;96642;-76
2023/04/05 09:06:28;;;;;;;23.00;12.10;;;;;;;2.92;59.54;100701.02;103315;1255;110124;-73
2023/04/05 09:08:57;;;;;;;20.20;11.60;;;;;;;2.96;59.39;100696.91;103549;1257;137849;-72
2023/04/05 09:11:25;;;;;;;21.80;10.80;;;;;;;3.02;59.34;100696.93;103615;1253;96448;-74
2023/04/05 09:13:53;;;;;;;18.70;10.20;;;;;;;3.05;58.89;100693.36;103599;1254;137394;-74
2023/04/05 09:16:25;;;;;;;17.50;10.70;;;;;;;3.05;58.75;100694.38;103656;1254;96453;-73
2023/04/05 09:19:04;;;;;;;22.10;11.00;;;;;;;3.05;58.44;100695.08;103698;1256;110905;-73
2023/04/05 09:21:51;;;;;;;21.50;10.70;;;;;;;3.03;58.45;100696.42;103554;1255;137295;-74
2023/04/05 09:24:32;;;;;;;15.10;9.60;;;;;;;3.04;58.17;100697.45;103330;1256;96538;-74
2023/04/05 09:27:07;;;;;;;17.90;9.90;;;;;;;3.07;58.14;100699.73;103955;1256;137397;-75
2023/04/05 09:29:35;;;;;;;16.60;9.70;;;;;;;3.11;57.77;100701.30;103843;1253;96434;-74
2023/04/05 09:32:06;;;;;;;20.10;9.90;;;;;;;3.13;57.53;100695.80;103316;1255;136029;-74
2023/04/05 09:34:35;;;;;;;17.00;9.30;;;;;;;3.13;57.24;100701.98;103357;1258;107367;-76
2023/04/05 09:37:03;;;;;;;13.60;8.40;;;;;;;3.11;57.00;100698.38;104141;1252;96447;-80
2023/04/05 09:39:34;;;;;;;16.20;7.60;;;;;;;3.13;56.91;100699.06;103596;1257;137125;-72
2023/04/05 09:42:09;;;;;;;11.20;6.30;;;;;;;3.16;56.48;100699.77;104058;1256;96477;-73
2023/04/05 09:44:52;;;;;;;;;;;;;;;3.21;55.77;100701.34;104052;1258;137177;-75
2023/04/05 09:47:21;;;;;;;9.00;4.20;;;;;;;3.24;55.18;100699.30;104322;1256;107719;-76
2023/04/05 09:49:53;;;;;;;7.50;4.10;;;;;;;3.29;54.62;100702.94;103315;1256;137238;-74
2023/04/05 09:52:32;;;;;;;9.00;5.20;;;;;;;3.36;54.34;100699.16;103332;1258;107729;-71
2023/04/05 09:55:02;;;;;;;9.80;6.10;;;;;;;3.43;54.56;100703.52;103598;1254;96569;-69
2023/04/05 09:57:33;;;;;;;10.60;6.20;;;;;;;3.54;54.57;100702.34;103588;1256;137096;-68
2023/04/05 10:00:00;;;;;;;13.60;6.60;;;;;;;3.62;54.28;100698.95;103850;1254;108544;-74
2023/04/05 10:02:37;;;;;;;9.00;6.00;;;;;;;3.65;53.99;100699.65;103227;1256;137368;-73
2023/04/05 10:05:10;;;;;;;9.10;5.40;;;;;;;3.72;53.96;100698.10;103379;1254;108307;-73
2023/04/05 10:07:38;;;;;;;14.20;6.40;;;;;;;3.84;53.84;100698.31;102437;1258;1002940;-72
2023/04/05 10:10:06;;;;;;;11.80;5.90;;;;;;;3.92;53.36;100695.57;103168;1258;111153;-77
2023/04/05 10:12:37;;;;;;;10.90;5.60;;;;;;;4.00;53.29;100695.26;103461;1255;107699;-73
2023/04/05 10:15:09;;;;;;;10.70;5.70;;;;;;;4.11;52.56;100692.49;103338;1258;139795;-73
2023/04/05 10:17:48;;;;;;;9.60;5.90;;;;;;;4.18;52.07;100695.27;103302;1254;108495;-73
2023/04/05 10:20:17;;;;;;;12.10;5.80;;;;;;;4.39;52.54;100694.95;103375;1255;137105;-72
2023/04/05 10:23:00;;;;;;;10.00;5.90;;;;;;;4.70;52.34;100690.10;103639;1257;110003;-72
2023/04/05 10:25:34;;;;;;;11.60;5.80;;;;;;;5.05;51.66;100686.41;103381;1257;137623;-71
2023/04/05 10:28:06;;;;;;;7.50;5.30;;;;;;;5.29;50.70;100684.79;103222;1254;96418;-72
2023/04/05 10:30:39;;;;;;;9.60;4.70;;;;;;;5.53;50.33;100684.35;103315;1256;106656;-74
2023/04/05 10:33:19;;;;;;;14.80;6.00;;;;;;;5.84;50.02;100682.98;103412;1258;137262;-73
2023/04/05 10:35:56;;;;;;;10.10;5.40;;;;;;;6.06;49.46;100682.86;103644;1256;110392;-72
2023/04/05 10:38:27;;;;;;;9.90;5.40;;;;;;;6.22;48.73;100680.34;103115;1254;137405;-72
2023/04/05 10:40:58;;;;;;;7.00;5.20;;;;;;;6.32;48.19;100680.61;103643;1256;96471;-72
2023/04/05 10:43:27;;;;;;;12.00;5.20;;;;;;;6.35;47.71;100678.52;103413;1258;137091;-71
2023/04/05 10:45:57;;;;;;;10.80;5.40;;;;;;;6.28;47.45;100675.98;103708;1256;96246;-72
2023/04/05 10:48:34;;;;;;;10.70;5.20;;;;;;;6.16;47.23;100674.02;103276;1258;111170;-72
2023/04/05 10:51:03;;;;;;;9.20;4.90;;;;;;;6.05;47.15;100673.89;103215;1258;137267;-71
2023/04/05 10:53:43;;;;;;;8.70;3.90;;;;;;;5.95;46.80;100672.77;103456;1254;96458;-71
2023/04/05 10:56:11;;;;;;;8.80;4.20;;;;;;;5.87;46.34;100670.03;103063;1258;136958;-72
2023/04/05 10:58:41;;;;;;;7.00;3.90;;;;;;;5.64;46.10;100668.43;103196;1258;96440;-72
2023/04/05 11:01:10;;;;;;;6.60;3.90;;;;;;;5.64;46.30;100666.18;103124;1256;110168;-70
2023/04/05 11:03:51;;;;;;;6.30;4.20;;;;;;;5.59;45.60;100665.52;103321;1257;107738;-71
2023/04/05 11:06:24;;;;;;;7.40;4.20;;;;;;;5.40;45.28;100664.05;103518;1255;96564;-73
2023/04/05 11:08:54;;;;;;;6.40;3.80;;;;;;;5.45;45.72;100660.41;103194;1257;137073;-72
2023/04/05 11:11:22;;;;;;;6.60;4.20;;;;;;;5.79;45.61;100663.00;103715;1257;96441;-70
2023/04/05 11:13:55;;;;;;;11.00;4.20;;;;;;;6.08;45.84;100657.83;103201;1257;137139;-71
2023/04/05 11:16:22;;;;;;;6.10;4.10;;;;;;;6.30;45.13;100657.49;103232;1254;108698;-71
2023/04/05 11:18:52;;;;;;;8.10;3.90;;;;;;;6.39;45.03;100658.45;103419;1253;96448;-74
2023/04/05 11:21:30;;;;;;;7.20;4.30;;;;;;;6.45;44.27;100660.98;103065;1256;136888;-74
2023/04/05 11:24:06;;;;;;;8.60;4.20;;;;;;;6.37;44.21;100657.77;103620;1256;96418;-71
2023/04/05 11:27:00;;;;;;;7.50;4.70;;;;;;;6.44;44.31;100655.80;103149;1256;136898;-71
2023/04/05 11:29:51;;;;;;;7.00;4.40;;;;;;;6.51;44.14;100657.66;103624;1256;107896;-71
2023/04/05 11:32:18;;;;;;;8.10;4.20;;;;;;;6.58;43.83;100653.61;103299;1259;137528;-71
2023/04/05 11:35:00;;;;;;;6.90;4.20;;;;;;;6.51;43.69;100657.83;103164;1258;108619;-72